NOAA Weather Radio

Lightning Safety

Turn Around Don't Drown
Storm Ready
SkyWarn
WACO REGIONAL AIRPORT, TX, United States (KACT) 31-36N 97-13W 151M
Apr 18, 2015 - 10:51 PM EDT / 2015.04.19 0251 UTC
Wind: Variable at 3 MPH (3 KT):0
Visibility: 4 mile(s):0
Sky conditions: overcast
Weather: rain; mist; Lightning observed
Precipitation last hour: 0.20 inches
Temperature: 60.1 F (15.6 C)
Dew Point: 57.9 F (14.4 C)
Relative Humidity: 92%
Pressure (altimeter): 29.86 in. Hg (1011 hPa)
Pressure tendency: 0.04 inches (1.4 hPa) higher than three hours ago
ob: KACT 190251Z VRB03KT 4SM RA BR BKN080 OVC095 16/14 A2986 RMK AO2 LTG DSNT ALQDS TSB07E22 SLP108 P0020 60034 T01560144 53014
cycle: 3